sensor_id;sensor_type;location;lat;lon;timestamp;temperature;humidity
4207;DHT22;2117;47.972;7.830;2022-08-25T03:32:30;19.30;99.90
4207;DHT22;2117;47.972;7.830;2022-08-25T03:34:56;19.30;99.90
4207;DHT22;2117;47.972;7.830;2022-08-25T03:37:21;19.30;99.90
4207;DHT22;2117;47.972;7.830;2022-08-25T03:39:47;19.20;99.90
4207;DHT22;2117;47.972;7.830;2022-08-25T03:42:13;19.20;99.90
4207;DHT22;2117;47.972;7.830;2022-08-25T03:44:39;19.20;99.90
4207;DHT22;2117;47.972;7.830;2022-08-25T03:47:04;19.20;99.90
4207;DHT22;2117;47.972;7.830;2022-08-25T03:49:30;19.10;99.90
4207;DHT22;2117;47.972;7.830;2022-08-25T03:51:57;19.10;99.90
4207;DHT22;2117;47.972;7.830;2022-08-25T03:54:24;19.00;99.90
4207;DHT22;2117;47.972;7.830;2022-08-25T03:56:50;19.00;99.90
4207;DHT22;2117;47.972;7.830;2022-08-25T03:59:16;19.00;99.90
4207;DHT22;2117;47.972;7.830;2022-08-25T04:01:43;18.90;99.90
4207;DHT22;2117;47.972;7.830;2022-08-25T04:04:11;18.90;99.90
4207;DHT22;2117;47.972;7.830;2022-08-25T04:06:38;18.90;99.90
4207;DHT22;2117;47.972;7.830;2022-08-25T04:09:04;18.80;99.90
4207;DHT22;2117;47.972;7.830;2022-08-25T04:11:30;18.80;99.90
4207;DHT22;2117;47.972;7.830;2022-08-25T04:13:57;18.80;99.90
4207;DHT22;2117;47.972;7.830;2022-08-25T04:16:27;18.80;99.90
4207;DHT22;2117;47.972;7.830;2022-08-25T04:18:54;18.70;99.90
4207;DHT22;2117;47.972;7.830;2022-08-25T04:21:21;18.70;99.90
4207;DHT22;2117;47.972;7.830;2022-08-25T04:23:48;18.60;99.90
4207;DHT22;2117;47.972;7.830;2022-08-25T04:26:23;18.60;99.90
4207;DHT22;2117;47.972;7.830;2022-08-25T04:28:49;18.60;99.90
4207;DHT22;2117;47.972;7.830;2022-08-25T04:31:16;18.60;99.90
4207;DHT22;2117;47.972;7.830;2022-08-25T04:33:42;18.60;99.90
4207;DHT22;2117;47.972;7.830;2022-08-25T04:36:09;18.50;99.90
4207;DHT22;2117;47.972;7.830;2022-08-25T04:38:37;18.40;99.90
4207;DHT22;2117;47.972;7.830;2022-08-25T04:41:04;18.40;99.90
4207;DHT22;2117;47.972;7.830;2022-08-25T04:43:31;18.40;99.90
4207;DHT22;2117;47.972;7.830;2022-08-25T04:45:57;18.40;99.90
4207;DHT22;2117;47.972;7.830;2022-08-25T04:48:24;18.50;99.90
4207;DHT22;2117;47.972;7.830;2022-08-25T04:50:50;18.40;99.90
4207;DHT22;2117;47.972;7.830;2022-08-25T04:53:17;18.40;99.90
4207;DHT22;2117;47.972;7.830;2022-08-25T04:55:45;18.40;99.90
4207;DHT22;2117;47.972;7.830;2022-08-25T04:58:13;18.40;99.90
4207;DHT22;2117;47.972;7.830;2022-08-25T05:00:39;18.40;99.90
4207;DHT22;2117;47.972;7.830;2022-08-25T05:03:05;18.40;99.90
4207;DHT22;2117;47.972;7.830;2022-08-25T05:05:31;18.40;99.90
4207;DHT22;2117;47.972;7.830;2022-08-25T05:07:59;18.30;99.90
4207;DHT22;2117;47.972;7.830;2022-08-25T05:10:25;18.30;99.90
4207;DHT22;2117;47.972;7.830;2022-08-25T05:12:51;18.30;99.90
4207;DHT22;2117;47.972;7.830;2022-08-25T05:15:16;18.30;99.90
4207;DHT22;2117;47.972;7.830;2022-08-25T05:18:00;18.30;99.90
4207;DHT22;2117;47.972;7.830;2022-08-25T05:20:26;18.30;99.90
4207;DHT22;2117;47.972;7.830;2022-08-25T05:22:51;18.30;99.90
4207;DHT22;2117;47.972;7.830;2022-08-25T05:25:17;18.30;99.90
4207;DHT22;2117;47.972;7.830;2022-08-25T05:27:43;18.40;99.90
4207;DHT22;2117;47.972;7.830;2022-08-25T05:30:10;18.70;99.90
4207;DHT22;2117;47.972;7.830;2022-08-25T05:32:36;19.00;99.90
4207;DHT22;2117;47.972;7.830;2022-08-25T05:35:03;19.00;99.90
4207;DHT22;2117;47.972;7.830;2022-08-25T05:37:29;19.10;99.90
4207;DHT22;2117;47.972;7.830;2022-08-25T05:39:54;19.10;99.90
4207;DHT22;2117;47.972;7.830;2022-08-25T05:42:20;19.20;99.90
4207;DHT22;2117;47.972;7.830;2022-08-25T05:44:47;19.40;99.90
4207;DHT22;2117;47.972;7.830;2022-08-25T05:47:12;19.60;99.90
4207;DHT22;2117;47.972;7.830;2022-08-25T05:49:38;19.70;99.90
4207;DHT22;2117;47.972;7.830;2022-08-25T05:52:04;19.80;99.90
4207;DHT22;2117;47.972;7.830;2022-08-25T05:54:29;19.80;99.90
4207;DHT22;2117;47.972;7.830;2022-08-25T05:56:56;19.90;99.90
4207;DHT22;2117;47.972;7.830;2022-08-25T05:59:22;19.90;99.90
4207;DHT22;2117;47.972;7.830;2022-08-25T06:01:48;20.10;99.90
4207;DHT22;2117;47.972;7.830;2022-08-25T06:04:32;20.20;99.90
4207;DHT22;2117;47.972;7.830;2022-08-25T06:06:58;20.30;99.90
4207;DHT22;2117;47.972;7.830;2022-08-25T06:09:23;20.40;99.90
4207;DHT22;2117;47.972;7.830;2022-08-25T06:11:49;20.40;99.90
4207;DHT22;2117;47.972;7.830;2022-08-25T06:14:15;20.50;99.90
4207;DHT22;2117;47.972;7.830;2022-08-25T06:16:41;20.50;99.90
4207;DHT22;2117;47.972;7.830;2022-08-25T06:19:08;20.60;99.90
4207;DHT22;2117;47.972;7.830;2022-08-25T06:21:35;20.60;99.90
4207;DHT22;2117;47.972;7.830;2022-08-25T06:24:03;20.50;99.90
4207;DHT22;2117;47.972;7.830;2022-08-25T06:26:29;20.40;99.90
4207;DHT22;2117;47.972;7.830;2022-08-25T06:28:54;20.30;99.90
4207;DHT22;2117;47.972;7.830;2022-08-25T06:31:20;20.30;99.90
4207;DHT22;2117;47.972;7.830;2022-08-25T06:33:47;20.30;99.90
4207;DHT22;2117;47.972;7.830;2022-08-25T06:36:13;20.20;99.90
4207;DHT22;2117;47.972;7.830;2022-08-25T06:38:39;20.20;99.90
4207;DHT22;2117;47.972;7.830;2022-08-25T06:41:07;20.10;99.90
4207;DHT22;2117;47.972;7.830;2022-08-25T06:43:34;20.10;99.90
4207;DHT22;2117;47.972;7.830;2022-08-25T06:46:11;20.10;99.90
4207;DHT22;2117;47.972;7.830;2022-08-25T06:48:38;20.00;99.90
4207;DHT22;2117;47.972;7.830;2022-08-25T06:51:08;20.10;99.90
4207;DHT22;2117;47.972;7.830;2022-08-25T06:53:34;20.10;99.90
4207;DHT22;2117;47.972;7.830;2022-08-25T06:56:01;20.10;99.90
4207;DHT22;2117;47.972;7.830;2022-08-25T06:58:26;20.20;99.90
4207;DHT22;2117;47.972;7.830;2022-08-25T07:00:52;20.20;99.90
4207;DHT22;2117;47.972;7.830;2022-08-25T07:03:18;20.30;99.90
4207;DHT22;2117;47.972;7.830;2022-08-25T07:05:54;20.30;99.90
4207;DHT22;2117;47.972;7.830;2022-08-25T07:08:21;20.40;99.90
4207;DHT22;2117;47.972;7.830;2022-08-25T07:10:47;20.40;99.90
4207;DHT22;2117;47.972;7.830;2022-08-25T07:13:12;20.40;99.90
4207;DHT22;2117;47.972;7.830;2022-08-25T07:15:39;20.50;99.90
4207;DHT22;2117;47.972;7.830;2022-08-25T07:18:06;20.50;99.90
4207;DHT22;2117;47.972;7.830;2022-08-25T07:20:35;20.50;99.90
4207;DHT22;2117;47.972;7.830;2022-08-25T07:23:01;20.60;99.90
4207;DHT22;2117;47.972;7.830;2022-08-25T07:25:26;20.70;99.90
4207;DHT22;2117;47.972;7.830;2022-08-25T07:27:52;20.80;99.90
4207;DHT22;2117;47.972;7.830;2022-08-25T07:30:18;20.90;99.90
4207;DHT22;2117;47.972;7.830;2022-08-25T07:32:44;21.00;99.90
4207;DHT22;2117;47.972;7.830;2022-08-25T07:35:09;21.00;99.90
4207;DHT22;2117;47.972;7.830;2022-08-25T07:37:43;21.10;99.90
4207;DHT22;2117;47.972;7.830;2022-08-25T07:40:16;21.20;99.90
4207;DHT22;2117;47.972;7.830;2022-08-25T07:42:42;21.30;99.90
4207;DHT22;2117;47.972;7.830;2022-08-25T07:45:09;21.40;99.90
4207;DHT22;2117;47.972;7.830;2022-08-25T07:47:36;21.50;99.90
4207;DHT22;2117;47.972;7.830;2022-08-25T07:50:04;21.60;99.90
4207;DHT22;2117;47.972;7.830;2022-08-25T07:52:30;21.70;99.90
4207;DHT22;2117;47.972;7.830;2022-08-25T07:54:55;21.80;99.90
4207;DHT22;2117;47.972;7.830;2022-08-25T07:57:21;21.90;99.90
4207;DHT22;2117;47.972;7.830;2022-08-25T07:59:48;21.90;99.90
4207;DHT22;2117;47.972;7.830;2022-08-25T08:02:14;22.00;99.90
4207;DHT22;2117;47.972;7.830;2022-08-25T08:04:40;22.00;99.90
4207;DHT22;2117;47.972;7.830;2022-08-25T08:07:07;22.10;99.90
4207;DHT22;2117;47.972;7.830;2022-08-25T08:09:33;22.20;99.90
4207;DHT22;2117;47.972;7.830;2022-08-25T08:11:58;22.30;99.90
4207;DHT22;2117;47.972;7.830;2022-08-25T08:14:24;22.30;99.90
4207;DHT22;2117;47.972;7.830;2022-08-25T08:16:50;22.40;99.90
4207;DHT22;2117;47.972;7.830;2022-08-25T08:19:16;22.50;99.90
4207;DHT22;2117;47.972;7.830;2022-08-25T08:21:42;22.50;99.90
4207;DHT22;2117;47.972;7.830;2022-08-25T08:24:08;22.60;99.90
4207;DHT22;2117;47.972;7.830;2022-08-25T08:26:34;22.70;99.90
4207;DHT22;2117;47.972;7.830;2022-08-25T08:29:00;22.80;99.90
4207;DHT22;2117;47.972;7.830;2022-08-25T08:31:26;22.90;99.90
4207;DHT22;2117;47.972;7.830;2022-08-25T08:33:56;23.10;99.90
4207;DHT22;2117;47.972;7.830;2022-08-25T08:36:24;23.10;99.90
4207;DHT22;2117;47.972;7.830;2022-08-25T08:38:50;23.20;99.90
4207;DHT22;2117;47.972;7.830;2022-08-25T08:47:36;23.40;99.90
4207;DHT22;2117;47.972;7.830;2022-08-25T08:50:05;23.50;99.90
4207;DHT22;2117;47.972;7.830;2022-08-25T08:57:48;23.80;99.90
4207;DHT22;2117;47.972;7.830;2022-08-25T09:00:16;23.80;99.90
4207;DHT22;2117;47.972;7.830;2022-08-25T09:03:04;23.80;99.90
4207;DHT22;2117;47.972;7.830;2022-08-25T09:05:47;23.90;99.90
4207;DHT22;2117;47.972;7.830;2022-08-25T09:08:15;24.00;99.90
4207;DHT22;2117;47.972;7.830;2022-08-25T09:16:11;24.30;99.90
4207;DHT22;2117;47.972;7.830;2022-08-25T09:19:57;24.40;99.90
4207;DHT22;2117;47.972;7.830;2022-08-25T09:28:08;24.60;99.90
4207;DHT22;2117;47.972;7.830;2022-08-25T09:31:03;24.70;99.90
4207;DHT22;2117;47.972;7.830;2022-08-25T09:33:31;24.80;99.90
4207;DHT22;2117;47.972;7.830;2022-08-25T09:35:57;24.90;99.90
4207;DHT22;2117;47.972;7.830;2022-08-25T09:38:25;25.00;99.90
4207;DHT22;2117;47.972;7.830;2022-08-25T09:40:55;25.10;99.90
4207;DHT22;2117;47.972;7.830;2022-08-25T09:43:34;25.30;99.90
4207;DHT22;2117;47.972;7.830;2022-08-25T09:46:16;25.30;99.90
4207;DHT22;2117;47.972;7.830;2022-08-25T09:48:49;25.40;99.90
4207;DHT22;2117;47.972;7.830;2022-08-25T09:51:31;25.50;99.70
4207;DHT22;2117;47.972;7.830;2022-08-25T09:54:03;25.60;99.90
4207;DHT22;2117;47.972;7.830;2022-08-25T09:56:31;25.60;99.90
4207;DHT22;2117;47.972;7.830;2022-08-25T10:01:57;25.80;99.00
4207;DHT22;2117;47.972;7.830;2022-08-25T10:04:27;25.80;99.20
4207;DHT22;2117;47.972;7.830;2022-08-25T10:06:53;25.90;99.50
4207;DHT22;2117;47.972;7.830;2022-08-25T10:09:31;26.00;98.90
4207;DHT22;2117;47.972;7.830;2022-08-25T10:11:59;26.10;98.80
4207;DHT22;2117;47.972;7.830;2022-08-25T10:14:34;26.10;98.70
4207;DHT22;2117;47.972;7.830;2022-08-25T10:17:16;26.20;98.80
4207;DHT22;2117;47.972;7.830;2022-08-25T10:19:49;26.30;98.60
4207;DHT22;2117;47.972;7.830;2022-08-25T10:22:23;26.40;98.20
4207;DHT22;2117;47.972;7.830;2022-08-25T10:24:51;26.50;98.00
4207;DHT22;2117;47.972;7.830;2022-08-25T10:30:23;26.90;97.90
4207;DHT22;2117;47.972;7.830;2022-08-25T10:38:16;27.40;96.00
4207;DHT22;2117;47.972;7.830;2022-08-25T10:43:54;27.60;96.10
4207;DHT22;2117;47.972;7.830;2022-08-25T10:52:00;28.30;95.10
4207;DHT22;2117;47.972;7.830;2022-08-25T10:54:47;28.50;94.60
4207;DHT22;2117;47.972;7.830;2022-08-25T11:00:22;28.90;93.10
4207;DHT22;2117;47.972;7.830;2022-08-25T11:05:41;28.90;92.80
4207;DHT22;2117;47.972;7.830;2022-08-25T11:08:42;29.20;93.20
4207;DHT22;2117;47.972;7.830;2022-08-25T11:11:25;29.40;92.80
4207;DHT22;2117;47.972;7.830;2022-08-25T11:13:59;29.70;91.30
4207;DHT22;2117;47.972;7.830;2022-08-25T11:16:54;29.80;91.70
4207;DHT22;2117;47.972;7.830;2022-08-25T11:22:15;30.20;91.40
4207;DHT22;2117;47.972;7.830;2022-08-25T11:28:10;30.40;90.80
4207;DHT22;2117;47.972;7.830;2022-08-25T11:30:37;30.70;90.60
4207;DHT22;2117;47.972;7.830;2022-08-25T11:33:03;31.00;90.00
4207;DHT22;2117;47.972;7.830;2022-08-25T11:35:39;31.30;90.60
4207;DHT22;2117;47.972;7.830;2022-08-25T11:38:30;31.40;88.30
4207;DHT22;2117;47.972;7.830;2022-08-25T11:50:25;32.10;87.70
4207;DHT22;2117;47.972;7.830;2022-08-25T11:52:55;32.00;85.30
4207;DHT22;2117;47.972;7.830;2022-08-25T11:55:44;32.00;86.60
4207;DHT22;2117;47.972;7.830;2022-08-25T11:58:16;32.30;88.00
4207;DHT22;2117;47.972;7.830;2022-08-25T12:00:45;32.30;84.30
4207;DHT22;2117;47.972;7.830;2022-08-25T12:27:39;33.70;82.10
4207;DHT22;2117;47.972;7.830;2022-08-25T12:30:18;33.80;80.10
4207;DHT22;2117;47.972;7.830;2022-08-25T12:35:28;34.50;82.30
4207;DHT22;2117;47.972;7.830;2022-08-25T12:37:56;34.80;83.50
4207;DHT22;2117;47.972;7.830;2022-08-25T12:40:33;35.00;78.90
4207;DHT22;2117;47.972;7.830;2022-08-25T12:43:25;34.50;78.80
4207;DHT22;2117;47.972;7.830;2022-08-25T12:45:52;34.70;79.60
4207;DHT22;2117;47.972;7.830;2022-08-25T12:53:42;35.70;81.60
4207;DHT22;2117;47.972;7.830;2022-08-25T12:56:36;36.00;77.20
4207;DHT22;2117;47.972;7.830;2022-08-25T12:59:11;35.90;75.60
4207;DHT22;2117;47.972;7.830;2022-08-25T13:11:17;36.20;77.70
4207;DHT22;2117;47.972;7.830;2022-08-25T13:16:37;36.70;75.60
4207;DHT22;2117;47.972;7.830;2022-08-25T13:19:04;36.80;74.10
4207;DHT22;2117;47.972;7.830;2022-08-25T13:21:37;36.60;73.60
4207;DHT22;2117;47.972;7.830;2022-08-25T13:24:06;36.80;73.80
4207;DHT22;2117;47.972;7.830;2022-08-25T13:26:42;37.00;72.70
4207;DHT22;2117;47.972;7.830;2022-08-25T13:31:36;36.30;70.20
4207;DHT22;2117;47.972;7.830;2022-08-25T13:34:07;36.40;70.90
4207;DHT22;2117;47.972;7.830;2022-08-25T13:36:41;36.70;71.80
4207;DHT22;2117;47.972;7.830;2022-08-25T13:39:26;36.70;71.70
4207;DHT22;2117;47.972;7.830;2022-08-25T13:41:55;36.90;69.60
4207;DHT22;2117;47.972;7.830;2022-08-25T13:44:25;37.00;67.60
4207;DHT22;2117;47.972;7.830;2022-08-25T13:47:10;37.20;69.10
4207;DHT22;2117;47.972;7.830;2022-08-25T13:49:39;37.40;68.70
4207;DHT22;2117;47.972;7.830;2022-08-25T13:52:06;37.50;64.40
4207;DHT22;2117;47.972;7.830;2022-08-25T13:54:37;37.20;65.70
4207;DHT22;2117;47.972;7.830;2022-08-25T13:57:24;36.80;64.40
4207;DHT22;2117;47.972;7.830;2022-08-25T13:59:54;37.20;65.10
4207;DHT22;2117;47.972;7.830;2022-08-25T14:02:42;37.30;63.90
4207;DHT22;2117;47.972;7.830;2022-08-25T14:05:09;37.00;62.90
4207;DHT22;2117;47.972;7.830;2022-08-25T14:07:35;36.90;61.60
4207;DHT22;2117;47.972;7.830;2022-08-25T14:10:05;37.30;63.70
4207;DHT22;2117;47.972;7.830;2022-08-25T14:12:41;37.40;61.00
4207;DHT22;2117;47.972;7.830;2022-08-25T14:17:59;37.60;57.60
4207;DHT22;2117;47.972;7.830;2022-08-25T14:20:29;37.60;59.20
4207;DHT22;2117;47.972;7.830;2022-08-25T14:23:07;37.50;59.00
4207;DHT22;2117;47.972;7.830;2022-08-25T14:25:33;37.70;59.30
4207;DHT22;2117;47.972;7.830;2022-08-25T14:28:05;37.80;59.30
4207;DHT22;2117;47.972;7.830;2022-08-25T14:30:34;37.70;60.20
4207;DHT22;2117;47.972;7.830;2022-08-25T14:33:01;37.80;59.10
4207;DHT22;2117;47.972;7.830;2022-08-25T14:35:28;37.80;57.10
4207;DHT22;2117;47.972;7.830;2022-08-25T14:37:54;37.50;57.50
4207;DHT22;2117;47.972;7.830;2022-08-25T14:40:20;37.60;55.70
4207;DHT22;2117;47.972;7.830;2022-08-25T14:42:47;37.70;55.30
4207;DHT22;2117;47.972;7.830;2022-08-25T14:45:14;37.50;55.20
4207;DHT22;2117;47.972;7.830;2022-08-25T14:47:41;37.20;54.50
4207;DHT22;2117;47.972;7.830;2022-08-25T14:50:07;37.40;54.90
4207;DHT22;2117;47.972;7.830;2022-08-25T14:52:33;37.50;54.20
4207;DHT22;2117;47.972;7.830;2022-08-25T14:54:59;37.50;54.50
4207;DHT22;2117;47.972;7.830;2022-08-25T14:57:25;37.60;51.10
4207;DHT22;2117;47.972;7.830;2022-08-25T14:59:51;37.50;53.70
4207;DHT22;2117;47.972;7.830;2022-08-25T15:02:19;37.50;51.30
4207;DHT22;2117;47.972;7.830;2022-08-25T15:04:54;37.70;53.30
4207;DHT22;2117;47.972;7.830;2022-08-25T15:07:21;37.40;47.30
4207;DHT22;2117;47.972;7.830;2022-08-25T15:10:06;37.40;48.10
4207;DHT22;2117;47.972;7.830;2022-08-25T15:12:33;37.60;50.60
4207;DHT22;2117;47.972;7.830;2022-08-25T15:14:59;37.70;50.90
4207;DHT22;2117;47.972;7.830;2022-08-25T15:17:26;37.50;49.40
4207;DHT22;2117;47.972;7.830;2022-08-25T15:19:52;37.50;49.80
4207;DHT22;2117;47.972;7.830;2022-08-25T15:22:18;37.20;48.40
4207;DHT22;2117;47.972;7.830;2022-08-25T15:24:44;37.50;49.40
4207;DHT22;2117;47.972;7.830;2022-08-25T15:27:10;37.60;50.40
4207;DHT22;2117;47.972;7.830;2022-08-25T15:29:36;37.60;50.90
4207;DHT22;2117;47.972;7.830;2022-08-25T15:32:04;37.50;49.30
4207;DHT22;2117;47.972;7.830;2022-08-25T15:34:31;37.60;50.00
4207;DHT22;2117;47.972;7.830;2022-08-25T15:36:58;37.40;50.10
4207;DHT22;2117;47.972;7.830;2022-08-25T15:39:25;37.10;49.90
4207;DHT22;2117;47.972;7.830;2022-08-25T15:41:51;36.60;50.50
4207;DHT22;2117;47.972;7.830;2022-08-25T15:44:17;36.30;50.60
4207;DHT22;2117;47.972;7.830;2022-08-25T15:46:43;35.90;51.70
4207;DHT22;2117;47.972;7.830;2022-08-25T15:49:09;35.50;51.30
4207;DHT22;2117;47.972;7.830;2022-08-25T15:51:35;35.30;50.90
4207;DHT22;2117;47.972;7.830;2022-08-25T15:54:01;34.80;51.40
4207;DHT22;2117;47.972;7.830;2022-08-25T15:56:26;34.70;53.20
4207;DHT22;2117;47.972;7.830;2022-08-25T15:58:53;33.90;53.40
4207;DHT22;2117;47.972;7.830;2022-08-25T16:01:25;33.90;53.80
4207;DHT22;2117;47.972;7.830;2022-08-25T16:03:52;33.60;52.40
4207;DHT22;2117;47.972;7.830;2022-08-25T16:06:18;33.50;53.40
4207;DHT22;2117;47.972;7.830;2022-08-25T16:08:44;33.30;53.80
4207;DHT22;2117;47.972;7.830;2022-08-25T16:11:21;33.20;54.60
4207;DHT22;2117;47.972;7.830;2022-08-25T16:13:48;33.10;53.60
4207;DHT22;2117;47.972;7.830;2022-08-25T16:16:15;32.70;54.30
4207;DHT22;2117;47.972;7.830;2022-08-25T16:18:42;32.60;54.70
4207;DHT22;2117;47.972;7.830;2022-08-25T16:21:14;32.40;53.80
4207;DHT22;2117;47.972;7.830;2022-08-25T16:23:39;32.20;55.10
4207;DHT22;2117;47.972;7.830;2022-08-25T16:26:07;32.20;55.50
4207;DHT22;2117;47.972;7.830;2022-08-25T16:28:34;32.00;55.00
4207;DHT22;2117;47.972;7.830;2022-08-25T16:31:00;31.90;55.30
4207;DHT22;2117;47.972;7.830;2022-08-25T16:33:26;31.80;55.00
4207;DHT22;2117;47.972;7.830;2022-08-25T16:35:52;31.70;56.10
4207;DHT22;2117;47.972;7.830;2022-08-25T16:38:17;31.70;55.50
4207;DHT22;2117;47.972;7.830;2022-08-25T16:40:44;31.50;55.40
4207;DHT22;2117;47.972;7.830;2022-08-25T16:43:10;31.50;56.00
4207;DHT22;2117;47.972;7.830;2022-08-25T16:45:36;31.40;55.40
4207;DHT22;2117;47.972;7.830;2022-08-25T16:48:03;31.30;56.10
4207;DHT22;2117;47.972;7.830;2022-08-25T16:50:29;31.30;56.60
4207;DHT22;2117;47.972;7.830;2022-08-25T16:52:56;31.10;55.60
4207;DHT22;2117;47.972;7.830;2022-08-25T16:55:40;31.10;56.30
4207;DHT22;2117;47.972;7.830;2022-08-25T16:58:07;31.10;57.30
4207;DHT22;2117;47.972;7.830;2022-08-25T17:00:35;31.00;58.10
4207;DHT22;2117;47.972;7.830;2022-08-25T17:03:04;31.00;58.40
4207;DHT22;2117;47.972;7.830;2022-08-25T17:05:31;30.90;58.50
4207;DHT22;2117;47.972;7.830;2022-08-25T17:08:00;30.80;58.30
4207;DHT22;2117;47.972;7.830;2022-08-25T17:10:44;30.80;59.10
4207;DHT22;2117;47.972;7.830;2022-08-25T17:13:11;30.80;59.60
4207;DHT22;2117;47.972;7.830;2022-08-25T17:15:42;30.80;62.20
4207;DHT22;2117;47.972;7.830;2022-08-25T17:18:08;30.70;64.50
4207;DHT22;2117;47.972;7.830;2022-08-25T17:20:34;30.60;62.90
4207;DHT22;2117;47.972;7.830;2022-08-25T17:22:59;30.60;63.60
4207;DHT22;2117;47.972;7.830;2022-08-25T17:25:25;30.50;62.70
4207;DHT22;2117;47.972;7.830;2022-08-25T17:27:51;30.50;62.50
4207;DHT22;2117;47.972;7.830;2022-08-25T17:30:16;30.50;63.20
4207;DHT22;2117;47.972;7.830;2022-08-25T17:32:42;30.50;64.40
4207;DHT22;2117;47.972;7.830;2022-08-25T17:35:08;30.50;65.70
4207;DHT22;2117;47.972;7.830;2022-08-25T17:37:34;30.40;64.70
4207;DHT22;2117;47.972;7.830;2022-08-25T17:40:01;30.30;65.20
4207;DHT22;2117;47.972;7.830;2022-08-25T17:42:26;30.20;68.00
4207;DHT22;2117;47.972;7.830;2022-08-25T17:44:52;30.10;68.90
4207;DHT22;2117;47.972;7.830;2022-08-25T17:47:17;30.00;68.30
4207;DHT22;2117;47.972;7.830;2022-08-25T17:49:43;29.80;68.90
4207;DHT22;2117;47.972;7.830;2022-08-25T17:52:08;29.70;69.60
4207;DHT22;2117;47.972;7.830;2022-08-25T17:54:34;29.60;70.50
4207;DHT22;2117;47.972;7.830;2022-08-25T17:57:00;29.40;70.30
4207;DHT22;2117;47.972;7.830;2022-08-25T17:59:25;29.30;71.90
4207;DHT22;2117;47.972;7.830;2022-08-25T18:01:53;29.10;71.40
4207;DHT22;2117;47.972;7.830;2022-08-25T18:04:18;29.00;73.00
4207;DHT22;2117;47.972;7.830;2022-08-25T18:06:45;28.80;73.90
4207;DHT22;2117;47.972;7.830;2022-08-25T18:09:11;28.70;73.80
4207;DHT22;2117;47.972;7.830;2022-08-25T18:11:37;28.60;74.00
4207;DHT22;2117;47.972;7.830;2022-08-25T18:14:03;28.40;74.80
4207;DHT22;2117;47.972;7.830;2022-08-25T18:16:28;28.30;74.90
4207;DHT22;2117;47.972;7.830;2022-08-25T18:18:54;28.10;76.20
4207;DHT22;2117;47.972;7.830;2022-08-25T18:21:21;28.00;75.50
4207;DHT22;2117;47.972;7.830;2022-08-25T18:23:48;27.90;76.40
4207;DHT22;2117;47.972;7.830;2022-08-25T18:26:15;27.80;76.90
4207;DHT22;2117;47.972;7.830;2022-08-25T18:28:41;27.70;76.60
4207;DHT22;2117;47.972;7.830;2022-08-25T18:31:07;27.60;76.30
4207;DHT22;2117;47.972;7.830;2022-08-25T18:33:32;27.50;75.60
4207;DHT22;2117;47.972;7.830;2022-08-25T18:35:59;27.40;76.00
4207;DHT22;2117;47.972;7.830;2022-08-25T18:38:25;27.40;75.90
4207;DHT22;2117;47.972;7.830;2022-08-25T18:41:10;27.30;75.70
4207;DHT22;2117;47.972;7.830;2022-08-25T18:43:36;27.10;76.50
4207;DHT22;2117;47.972;7.830;2022-08-25T18:46:03;27.00;76.80
4207;DHT22;2117;47.972;7.830;2022-08-25T18:48:29;26.90;77.00
4207;DHT22;2117;47.972;7.830;2022-08-25T18:50:56;26.80;78.10
4207;DHT22;2117;47.972;7.830;2022-08-25T18:53:24;26.70;79.30
4207;DHT22;2117;47.972;7.830;2022-08-25T18:55:50;26.70;79.70
4207;DHT22;2117;47.972;7.830;2022-08-25T18:58:19;26.60;80.80
4207;DHT22;2117;47.972;7.830;2022-08-25T19:00:45;26.50;80.60
4207;DHT22;2117;47.972;7.830;2022-08-25T19:03:12;26.40;80.80
4207;DHT22;2117;47.972;7.830;2022-08-25T19:05:40;26.30;81.30
4207;DHT22;2117;47.972;7.830;2022-08-25T19:08:08;26.20;82.00
4207;DHT22;2117;47.972;7.830;2022-08-25T19:10:35;26.10;81.50
4207;DHT22;2117;47.972;7.830;2022-08-25T19:13:02;26.00;81.70
4207;DHT22;2117;47.972;7.830;2022-08-25T19:15:29;25.90;82.00
4207;DHT22;2117;47.972;7.830;2022-08-25T19:17:56;25.80;82.10
4207;DHT22;2117;47.972;7.830;2022-08-25T19:20:23;25.80;83.40
4207;DHT22;2117;47.972;7.830;2022-08-25T19:22:49;25.60;83.60
4207;DHT22;2117;47.972;7.830;2022-08-25T19:25:16;25.60;84.10
4207;DHT22;2117;47.972;7.830;2022-08-25T19:27:42;25.50;84.20
4207;DHT22;2117;47.972;7.830;2022-08-25T19:30:10;25.50;84.70
4207;DHT22;2117;47.972;7.830;2022-08-25T19:32:38;25.40;84.20
4207;DHT22;2117;47.972;7.830;2022-08-25T19:35:07;25.30;84.70
4207;DHT22;2117;47.972;7.830;2022-08-25T19:37:33;25.20;85.10
4207;DHT22;2117;47.972;7.830;2022-08-25T19:39:59;25.10;84.70
4207;DHT22;2117;47.972;7.830;2022-08-25T19:42:25;25.00;85.70
4207;DHT22;2117;47.972;7.830;2022-08-25T19:44:54;25.00;85.50
4207;DHT22;2117;47.972;7.830;2022-08-25T19:47:19;24.90;86.00
4207;DHT22;2117;47.972;7.830;2022-08-25T19:49:46;24.80;86.30
4207;DHT22;2117;47.972;7.830;2022-08-25T19:52:14;24.80;86.00
4207;DHT22;2117;47.972;7.830;2022-08-25T19:54:43;24.70;86.90
4207;DHT22;2117;47.972;7.830;2022-08-25T19:57:11;24.60;86.70
4207;DHT22;2117;47.972;7.830;2022-08-25T19:59:39;24.60;86.40
4207;DHT22;2117;47.972;7.830;2022-08-25T20:02:08;24.50;87.70
4207;DHT22;2117;47.972;7.830;2022-08-25T20:04:34;24.40;88.10
4207;DHT22;2117;47.972;7.830;2022-08-25T20:07:00;24.40;88.40
4207;DHT22;2117;47.972;7.830;2022-08-25T20:09:26;24.30;88.00
4207;DHT22;2117;47.972;7.830;2022-08-25T20:11:52;24.20;88.70
4207;DHT22;2117;47.972;7.830;2022-08-25T20:14:18;24.20;88.90
4207;DHT22;2117;47.972;7.830;2022-08-25T20:16:44;24.10;89.30
4207;DHT22;2117;47.972;7.830;2022-08-25T20:19:10;24.00;89.80
4207;DHT22;2117;47.972;7.830;2022-08-25T20:21:36;23.90;89.50
4207;DHT22;2117;47.972;7.830;2022-08-25T20:24:06;23.90;89.80
4207;DHT22;2117;47.972;7.830;2022-08-25T20:26:51;23.90;90.00
4207;DHT22;2117;47.972;7.830;2022-08-25T20:29:17;23.80;90.30
4207;DHT22;2117;47.972;7.830;2022-08-25T20:31:43;23.70;90.20
4207;DHT22;2117;47.972;7.830;2022-08-25T20:34:08;23.70;90.60
4207;DHT22;2117;47.972;7.830;2022-08-25T20:36:34;23.60;90.70
4207;DHT22;2117;47.972;7.830;2022-08-25T20:39:00;23.60;90.70
4207;DHT22;2117;47.972;7.830;2022-08-25T20:41:26;23.50;90.80
4207;DHT22;2117;47.972;7.830;2022-08-25T20:43:51;23.50;90.70
4207;DHT22;2117;47.972;7.830;2022-08-25T20:46:17;23.40;90.90
4207;DHT22;2117;47.972;7.830;2022-08-25T20:48:43;23.40;91.10
4207;DHT22;2117;47.972;7.830;2022-08-25T20:51:10;23.40;91.80
4207;DHT22;2117;47.972;7.830;2022-08-25T20:53:37;23.30;91.40
4207;DHT22;2117;47.972;7.830;2022-08-25T20:56:11;23.20;91.50
4207;DHT22;2117;47.972;7.830;2022-08-25T20:58:38;23.10;91.10
4207;DHT22;2117;47.972;7.830;2022-08-25T21:01:08;23.10;91.70
4207;DHT22;2117;47.972;7.830;2022-08-25T21:03:34;23.10;91.80
4207;DHT22;2117;47.972;7.830;2022-08-25T21:06:05;23.10;92.10
4207;DHT22;2117;47.972;7.830;2022-08-25T21:08:31;23.00;92.10
4207;DHT22;2117;47.972;7.830;2022-08-25T21:10:56;23.00;92.40
4207;DHT22;2117;47.972;7.830;2022-08-25T21:13:22;22.90;92.30
4207;DHT22;2117;47.972;7.830;2022-08-25T21:15:48;22.90;92.50
4207;DHT22;2117;47.972;7.830;2022-08-25T21:18:13;22.80;92.60
4207;DHT22;2117;47.972;7.830;2022-08-25T21:20:39;22.80;92.70
4207;DHT22;2117;47.972;7.830;2022-08-25T21:23:04;22.70;92.80
4207;DHT22;2117;47.972;7.830;2022-08-25T21:25:40;22.70;92.90
4207;DHT22;2117;47.972;7.830;2022-08-25T21:28:06;22.70;93.20
4207;DHT22;2117;47.972;7.830;2022-08-25T21:30:32;22.70;93.30
4207;DHT22;2117;47.972;7.830;2022-08-25T21:32:58;22.60;93.50
4207;DHT22;2117;47.972;7.830;2022-08-25T21:35:23;22.60;93.90
4207;DHT22;2117;47.972;7.830;2022-08-25T21:37:51;22.50;93.60